Time;durP1;ratioP1;P1;durP2;ratioP2;P2;SDS_P1;SDS_P2;PMS_P1;PMS_P2;Temp;Humidity;BMP_temperature;BMP_pressure;BME280_temperature;BME280_humidity;BME280_pressure;Samples;Min_cycle;Max_cycle;Signal;HPM_P1;HPM_P2
2023/03/18 00:01:58;;;;;;;7.23;4.97;;;13.70;99.90;;;;;;4990745;28;20228;-91
2023/03/18 00:04:28;;;;;;;8.90;5.27;;;13.50;99.90;;;;;;4977059;28;20232;-90
2023/03/18 00:06:56;;;;;;;7.80;5.27;;;13.50;99.90;;;;;;4973474;28;20201;-88
2023/03/18 00:09:25;;;;;;;12.13;5.63;;;13.50;99.90;;;;;;4994694;28;20462;-92
2023/03/18 00:11:55;;;;;;;9.07;5.80;;;13.40;99.90;;;;;;4993980;28;20214;-89
2023/03/18 00:14:32;;;;;;;10.57;5.70;;;13.40;99.90;;;;;;4994441;28;20212;-91
2023/03/18 00:17:01;;;;;;;12.03;6.00;;;13.50;99.90;;;;;;5011094;28;20270;-90
2023/03/18 00:19:29;;;;;;;12.10;6.63;;;13.40;99.90;;;;;;5002885;28;20211;-90
2023/03/18 00:21:58;;;;;;;11.87;6.33;;;13.30;99.90;;;;;;4995810;28;20206;-90
2023/03/18 00:24:29;;;;;;;11.10;6.57;;;13.30;99.90;;;;;;4992151;28;20203;-91
2023/03/18 00:27:04;;;;;;;16.23;7.40;;;13.30;99.90;;;;;;4982778;28;20539;-89
2023/03/18 00:29:32;;;;;;;13.67;6.53;;;13.20;99.90;;;;;;4982198;28;20203;-88
2023/03/18 00:32:00;;;;;;;12.50;7.10;;;13.20;99.90;;;;;;4971202;28;20201;-89
2023/03/18 00:34:32;;;;;;;11.53;6.90;;;13.20;99.90;;;;;;4983420;28;20227;-89
2023/03/18 00:37:00;;;;;;;12.27;7.03;;;13.10;99.90;;;;;;4981123;28;20204;-90
2023/03/18 00:39:31;;;;;;;10.90;7.00;;;13.10;99.90;;;;;;4994819;28;20704;-89
2023/03/18 00:42:06;;;;;;;11.43;6.27;;;13.00;99.90;;;;;;4977444;28;20208;-90
2023/03/18 00:44:34;;;;;;;14.77;7.50;;;12.90;99.90;;;;;;4986373;28;20278;-90
2023/03/18 00:47:05;;;;;;;11.47;6.90;;;13.00;99.90;;;;;;4982060;28;20242;-90
2023/03/18 00:49:33;;;;;;;12.43;6.90;;;12.90;99.90;;;;;;4984293;28;20203;-90
2023/03/18 00:52:03;;;;;;;13.47;7.53;;;12.90;99.90;;;;;;4986856;28;20642;-90
2023/03/18 00:54:30;;;;;;;9.90;6.90;;;12.80;99.90;;;;;;4986550;28;20287;-89
2023/03/18 00:56:59;;;;;;;10.97;6.43;;;12.80;99.90;;;;;;4995972;28;20235;-89
2023/03/18 00:59:28;;;;;;;12.33;6.70;;;12.90;99.90;;;;;;4985966;28;20207;-90
2023/03/18 01:01:58;;;;;;;18.30;7.07;;;12.80;99.90;;;;;;4986788;28;20255;-89
2023/03/18 01:04:26;;;;;;;11.03;6.07;;;12.70;99.90;;;;;;4977851;28;20221;-89
2023/03/18 01:06:58;;;;;;;12.50;6.63;;;12.70;99.90;;;;;;4966578;28;20197;-89
2023/03/18 01:09:31;;;;;;;8.97;6.60;;;12.60;99.90;;;;;;4973549;28;20208;-89
2023/03/18 01:12:02;;;;;;;12.20;7.03;;;12.60;99.90;;;;;;4985154;28;20208;-91
2023/03/18 01:14:29;;;;;;;12.13;7.07;;;12.50;99.90;;;;;;4984493;28;20696;-89
2023/03/18 01:16:56;;;;;;;14.03;6.60;;;12.60;99.90;;;;;;4984415;28;20212;-91
2023/03/18 01:19:26;;;;;;;15.07;6.77;;;12.60;99.90;;;;;;4985373;28;20219;-90
2023/03/18 01:21:54;;;;;;;13.17;7.20;;;12.60;99.90;;;;;;4985931;28;20204;-91
2023/03/18 01:24:25;;;;;;;10.00;6.73;;;12.60;99.90;;;;;;4985518;28;20231;-91
2023/03/18 01:26:55;;;;;;;12.43;7.13;;;12.60;99.90;;;;;;4985239;28;20235;-90
2023/03/18 01:29:25;;;;;;;11.63;6.90;;;12.60;99.90;;;;;;4984552;28;20292;-89
2023/03/18 01:31:53;;;;;;;13.77;6.90;;;12.60;99.90;;;;;;4984625;28;20212;-89
2023/03/18 01:34:21;;;;;;;12.20;6.43;;;12.50;99.90;;;;;;4985264;28;20258;-88
2023/03/18 01:36:48;;;;;;;12.50;6.83;;;12.50;99.90;;;;;;4986920;28;20214;-91
2023/03/18 01:39:24;;;;;;;10.70;7.10;;;12.50;99.90;;;;;;4981316;28;20211;-88
2023/03/18 01:41:53;;;;;;;9.23;6.67;;;12.50;99.90;;;;;;4973240;28;20695;-90
2023/03/18 01:44:24;;;;;;;12.00;6.77;;;12.40;99.90;;;;;;4984268;28;20242;-89
2023/03/18 01:46:55;;;;;;;11.37;6.47;;;12.40;99.90;;;;;;4984961;28;20249;-88
2023/03/18 01:49:39;;;;;;;13.27;6.77;;;12.40;99.90;;;;;;4987196;28;20212;-89
2023/03/18 01:52:19;;;;;;;12.07;6.87;;;12.40;99.90;;;;;;4983530;28;20227;-90
2023/03/18 01:54:59;;;;;;;11.20;7.13;;;12.40;99.90;;;;;;4984061;28;20263;-90
2023/03/18 01:57:29;;;;;;;13.70;7.23;;;12.30;99.90;;;;;;4983756;28;20207;-88
2023/03/18 02:00:06;;;;;;;11.07;6.80;;;12.30;99.90;;;;;;4983738;28;20200;-89
2023/03/18 02:02:44;;;;;;;14.47;6.70;;;12.30;99.90;;;;;;4983957;28;20703;-89
2023/03/18 02:05:22;;;;;;;13.17;7.63;;;12.20;99.90;;;;;;4983468;28;20238;-90
2023/03/18 02:07:54;;;;;;;13.03;8.10;;;12.30;99.90;;;;;;4983679;28;20199;-90
2023/03/18 02:10:29;;;;;;;13.23;8.13;;;12.20;99.90;;;;;;4985312;28;20215;-90
2023/03/18 02:13:01;;;;;;;13.93;7.70;;;12.20;99.90;;;;;;4984451;28;20227;-90
2023/03/18 02:15:32;;;;;;;13.10;6.87;;;12.20;99.90;;;;;;4984983;28;20635;-90
2023/03/18 02:18:11;;;;;;;14.30;7.90;;;12.20;99.90;;;;;;4985185;28;20260;-89
2023/03/18 02:21:20;;;;;;;14.97;7.90;;;12.20;99.90;;;;;;4965267;28;20208;-90
2023/03/18 02:24:08;;;;;;;12.57;8.33;;;12.20;99.90;;;;;;4981768;28;20554;-91
2023/03/18 02:26:50;;;;;;;12.43;8.33;;;12.10;99.90;;;;;;4983542;28;20204;-90
2023/03/18 02:29:20;;;;;;;14.10;7.77;;;12.10;99.90;;;;;;4984583;28;20192;-89
2023/03/18 02:31:50;;;;;;;13.80;8.30;;;12.10;99.90;;;;;;4996063;28;20207;-91
2023/03/18 02:34:18;;;;;;;13.07;8.57;;;12.00;99.90;;;;;;4984258;28;20227;-88
2023/03/18 02:36:46;;;;;;;13.50;8.80;;;12.00;99.90;;;;;;4983898;28;20199;-90
2023/03/18 02:39:28;;;;;;;17.70;8.93;;;12.00;99.90;;;;;;4984201;28;20215;-91
2023/03/18 02:41:56;;;;;;;12.43;8.37;;;11.90;99.90;;;;;;4986829;28;20874;-90
2023/03/18 02:44:26;;;;;;;15.37;8.67;;;11.90;99.90;;;;;;4985051;28;20239;-89
2023/03/18 02:47:03;;;;;;;15.77;9.17;;;11.90;99.90;;;;;;4984326;28;20202;-91
2023/03/18 02:49:38;;;;;;;15.43;8.63;;;11.80;99.90;;;;;;4984329;28;20214;-90
2023/03/18 02:52:06;;;;;;;14.03;8.73;;;11.80;99.90;;;;;;4984598;28;20211;-89
2023/03/18 02:54:35;;;;;;;14.00;9.10;;;11.80;99.90;;;;;;4989711;28;20211;-90
2023/03/18 02:57:02;;;;;;;18.27;9.67;;;11.70;99.90;;;;;;4985107;28;20239;-90
2023/03/18 02:59:37;;;;;;;14.80;9.87;;;11.70;99.90;;;;;;4983674;28;20192;-90
2023/03/18 03:02:05;;;;;;;14.70;9.40;;;11.70;99.90;;;;;;4983659;28;20227;-90
2023/03/18 03:04:32;;;;;;;14.60;9.40;;;11.70;99.90;;;;;;4983044;28;20232;-90
2023/03/18 03:07:04;;;;;;;22.47;10.73;;;11.70;99.90;;;;;;4990667;28;20203;-91
2023/03/18 03:09:33;;;;;;;15.60;10.03;;;11.70;99.90;;;;;;4979765;28;20221;-89
2023/03/18 03:12:01;;;;;;;15.67;9.83;;;11.70;99.90;;;;;;4976626;28;20301;-91
2023/03/18 03:14:30;;;;;;;16.93;11.00;;;11.80;99.90;;;;;;4996041;28;20231;-89
2023/03/18 03:17:00;;;;;;;16.13;10.70;;;11.70;99.90;;;;;;4980714;28;20203;-89
2023/03/18 03:19:27;;;;;;;17.40;10.70;;;11.70;99.90;;;;;;4980120;28;20217;-90
2023/03/18 03:22:00;;;;;;;18.97;10.37;;;11.70;99.90;;;;;;4982540;28;20225;-89
2023/03/18 03:24:34;;;;;;;17.10;10.43;;;11.70;99.90;;;;;;4983413;28;20229;-90
2023/03/18 03:27:01;;;;;;;16.67;10.67;;;11.60;99.90;;;;;;4987001;28;20202;-91
2023/03/18 03:29:29;;;;;;;16.10;10.10;;;11.70;99.90;;;;;;4987002;28;20640;-89
2023/03/18 03:32:05;;;;;;;17.77;10.53;;;11.60;99.90;;;;;;5004260;28;20234;-91
2023/03/18 03:34:37;;;;;;;14.97;10.00;;;11.70;99.90;;;;;;4976689;28;20218;-89
2023/03/18 03:37:05;;;;;;;17.00;10.83;;;11.70;99.90;;;;;;4988004;28;20237;-89
2023/03/18 03:39:34;;;;;;;15.87;10.73;;;11.70;99.90;;;;;;4987416;28;20221;-89
2023/03/18 03:42:04;;;;;;;16.90;11.30;;;11.70;99.90;;;;;;5003063;28;20199;-89
2023/03/18 03:44:36;;;;;;;19.17;12.30;;;11.70;99.90;;;;;;5002420;28;20204;-88
2023/03/18 03:47:09;;;;;;;19.40;12.27;;;11.70;99.90;;;;;;5003509;28;20219;-89
2023/03/18 03:49:37;;;;;;;17.50;11.30;;;11.70;99.90;;;;;;5002340;28;20214;-90
2023/03/18 03:52:09;;;;;;;18.33;11.50;;;11.70;99.90;;;;;;4994915;28;20222;-89
2023/03/18 03:54:37;;;;;;;19.97;12.10;;;11.70;99.90;;;;;;5003116;28;20237;-90
2023/03/18 03:57:05;;;;;;;16.83;11.33;;;11.70;99.90;;;;;;4996776;28;20583;-90
2023/03/18 03:59:33;;;;;;;21.13;11.70;;;11.70;99.90;;;;;;4987438;28;20214;-89
2023/03/18 04:02:02;;;;;;;19.97;12.90;;;11.70;99.90;;;;;;5003505;28;20231;-89
2023/03/18 04:04:30;;;;;;;19.67;11.83;;;11.80;99.90;;;;;;4986221;28;20210;-89
2023/03/18 04:06:59;;;;;;;18.20;11.60;;;11.80;99.90;;;;;;5000820;28;20223;-87
2023/03/18 04:09:26;;;;;;;19.00;11.67;;;11.80;99.90;;;;;;4984910;28;20203;-88
2023/03/18 04:11:55;;;;;;;17.30;11.83;;;11.80;99.90;;;;;;4988927;28;20202;-91
2023/03/18 04:14:24;;;;;;;18.77;12.27;;;11.80;99.90;;;;;;4985477;28;20272;-87
2023/03/18 04:16:51;;;;;;;20.47;12.50;;;11.80;99.90;;;;;;5002049;28;20202;-88
2023/03/18 04:19:22;;;;;;;16.07;11.37;;;11.80;99.90;;;;;;4986229;28;20231;-89
2023/03/18 04:21:50;;;;;;;17.23;11.53;;;11.70;99.90;;;;;;4985714;28;20226;-87
2023/03/18 04:24:20;;;;;;;21.33;11.57;;;11.70;99.90;;;;;;4989208;28;20199;-88
2023/03/18 04:26:51;;;;;;;17.73;11.57;;;11.70;99.90;;;;;;4989790;28;20253;-89
2023/03/18 04:29:19;;;;;;;19.40;12.37;;;11.70;99.90;;;;;;4990182;28;20246;-88
2023/03/18 04:31:46;;;;;;;19.73;11.67;;;11.70;99.90;;;;;;4989626;28;20290;-88
2023/03/18 04:34:21;;;;;;;22.73;13.03;;;11.70;99.90;;;;;;4989923;28;20298;-89
2023/03/18 04:36:52;;;;;;;23.27;13.03;;;11.60;99.90;;;;;;5006113;28;20198;-88
2023/03/18 04:39:20;;;;;;;25.17;15.20;;;11.60;99.90;;;;;;4989736;28;20217;-88
2023/03/18 04:41:57;;;;;;;25.73;14.70;;;11.60;99.90;;;;;;4990097;28;20233;-88
2023/03/18 04:44:29;;;;;;;29.10;15.47;;;11.60;99.90;;;;;;4990572;28;20225;-90
2023/03/18 04:46:56;;;;;;;29.57;16.17;;;11.60;99.90;;;;;;5005966;28;20684;-89
2023/03/18 04:49:26;;;;;;;27.50;15.23;;;11.50;99.90;;;;;;5001867;28;20223;-89
2023/03/18 04:51:54;;;;;;;23.83;15.43;;;11.60;99.90;;;;;;5005976;28;20210;-89
2023/03/18 04:54:21;;;;;;;26.27;15.30;;;11.60;99.90;;;;;;5005682;28;20214;-88
2023/03/18 04:56:49;;;;;;;24.50;15.27;;;11.60;99.90;;;;;;5005351;28;20219;-89
2023/03/18 04:59:23;;;;;;;29.50;16.83;;;11.60;99.90;;;;;;5005109;28;20221;-88
2023/03/18 05:01:50;;;;;;;26.80;16.47;;;11.60;99.90;;;;;;5005328;28;20234;-88
2023/03/18 05:04:17;;;;;;;25.53;16.57;;;11.60;99.90;;;;;;5005239;28;20611;-89
2023/03/18 05:06:53;;;;;;;27.43;16.63;;;11.60;99.90;;;;;;5005299;28;20234;-89
2023/03/18 05:09:21;;;;;;;31.73;17.20;;;11.60;99.90;;;;;;5005406;28;20210;-88
2023/03/18 05:11:56;;;;;;;31.60;18.43;;;11.70;99.90;;;;;;5004368;28;20207;-89
2023/03/18 05:14:25;;;;;;;34.03;17.50;;;11.70;99.90;;;;;;4989640;28;20234;-88
2023/03/18 05:16:53;;;;;;;35.70;19.03;;;11.70;99.90;;;;;;4989302;28;20218;-89
2023/03/18 05:19:21;;;;;;;31.43;18.23;;;11.70;99.90;;;;;;4989024;28;20203;-89
2023/03/18 05:21:50;;;;;;;32.43;17.93;;;11.70;99.90;;;;;;4988004;28;20198;-89
2023/03/18 05:24:18;;;;;;;31.20;18.93;;;11.70;99.90;;;;;;4988394;28;20195;-88
2023/03/18 05:26:48;;;;;;;33.13;17.70;;;11.70;99.90;;;;;;4985621;28;20235;-90
2023/03/18 05:29:15;;;;;;;27.47;18.23;;;11.70;99.90;;;;;;4987750;28;20218;-88
2023/03/18 05:31:50;;;;;;;36.70;18.80;;;11.70;99.90;;;;;;4988518;28;20256;-89
2023/03/18 05:34:20;;;;;;;34.30;18.77;;;11.70;99.90;;;;;;4986514;28;20219;-90
2023/03/18 05:36:51;;;;;;;32.87;18.67;;;11.70;99.90;;;;;;4987904;28;20230;-88
2023/03/18 05:39:21;;;;;;;32.20;18.73;;;11.80;99.90;;;;;;4992176;28;20265;-89
2023/03/18 05:41:56;;;;;;;33.80;19.00;;;11.70;99.90;;;;;;4988634;28;20195;-88
2023/03/18 05:44:23;;;;;;;36.57;19.77;;;11.70;99.90;;;;;;4988751;28;20202;-89
2023/03/18 05:46:53;;;;;;;30.03;19.00;;;11.70;99.90;;;;;;4974553;28;20222;-90
2023/03/18 05:49:29;;;;;;;34.90;18.43;;;11.70;99.90;;;;;;5004087;28;20234;-91
2023/03/18 05:51:55;;;;;;;36.40;19.40;;;11.70;99.90;;;;;;5004139;28;20270;-86
2023/03/18 05:54:33;;;;;;;;;;;;;;;;;;;;;
2023/03/18 05:57:06;;;;;;;34.67;18.50;;;11.80;99.90;;;;;;5009619;28;20419;-89
2023/03/18 05:59:33;;;;;;;32.17;18.63;;;11.80;99.90;;;;;;4989046;28;20214;-90
2023/03/18 06:02:03;;;;;;;37.67;20.83;;;11.80;99.90;;;;;;4988915;28;20222;-90
2023/03/18 06:04:33;;;;;;;32.83;19.07;;;11.70;99.90;;;;;;4988622;28;20284;-90
2023/03/18 06:07:11;;;;;;;37.77;19.57;;;11.80;99.90;;;;;;4988390;28;20732;-91
2023/03/18 06:09:38;;;;;;;33.93;19.20;;;11.80;99.90;;;;;;4988934;28;20270;-89
2023/03/18 06:12:21;;;;;;;34.93;19.97;;;11.80;99.90;;;;;;4988044;28;20214;-91
2023/03/18 06:14:51;;;;;;;35.43;19.43;;;11.70;99.90;;;;;;4981130;28;20208;-91
2023/03/18 06:17:23;;;;;;;30.37;18.87;;;11.80;99.90;;;;;;4968230;28;20272;-89
2023/03/18 06:19:53;;;;;;;35.93;19.77;;;11.90;99.90;;;;;;4994092;28;20264;-90
2023/03/18 06:22:42;;;;;;;35.13;19.30;;;11.80;99.90;;;;;;4983853;28;20207;-87
2023/03/18 06:25:17;;;;;;;41.17;21.40;;;11.80;99.90;;;;;;4976400;28;20216;-92
2023/03/18 06:27:47;;;;;;;43.27;21.47;;;11.80;99.90;;;;;;4982944;28;20192;-90
2023/03/18 06:30:20;;;;;;;31.47;19.97;;;11.80;99.90;;;;;;4987877;28;20218;-89
2023/03/18 06:32:52;;;;;;;34.63;20.77;;;11.80;99.90;;;;;;4986657;28;20242;-88
2023/03/18 06:35:25;;;;;;;36.93;20.40;;;11.70;99.90;;;;;;4986535;28;20212;-90
2023/03/18 06:37:52;;;;;;;39.07;20.90;;;11.70;99.90;;;;;;4969266;28;20208;-89
2023/03/18 06:40:21;;;;;;;35.73;21.93;;;11.70;99.90;;;;;;4983670;28;20207;-88
2023/03/18 06:42:49;;;;;;;36.63;21.17;;;11.70;99.90;;;;;;4978489;28;20213;-89
2023/03/18 06:45:20;;;;;;;36.37;21.10;;;11.80;99.90;;;;;;4976775;28;20204;-89
2023/03/18 06:47:50;;;;;;;42.27;23.13;;;11.80;99.90;;;;;;4977672;28;20240;-91
2023/03/18 06:50:21;;;;;;;40.70;22.47;;;11.80;99.90;;;;;;4974924;28;20287;-91
2023/03/18 06:52:52;;;;;;;36.17;21.00;;;11.80;99.90;;;;;;4969368;28;20277;-91
2023/03/18 06:55:36;;;;;;;40.37;22.70;;;11.80;99.90;;;;;;4962308;28;20612;-90
2023/03/18 06:58:18;;;;;;;41.97;23.00;;;11.80;99.90;;;;;;4998326;28;20219;-92
2023/03/18 07:00:46;;;;;;;40.37;21.83;;;11.80;99.90;;;;;;4965314;28;20236;-87
2023/03/18 07:03:14;;;;;;;42.40;22.83;;;11.90;99.90;;;;;;4982779;28;20216;-87
2023/03/18 07:05:41;;;;;;;37.30;22.00;;;11.90;99.90;;;;;;4981915;28;20232;-90
2023/03/18 07:08:12;;;;;;;40.90;22.07;;;12.00;99.90;;;;;;4988404;28;20217;-89
2023/03/18 07:10:41;;;;;;;37.53;22.10;;;12.00;99.90;;;;;;4990130;28;20206;-90
2023/03/18 07:13:09;;;;;;;42.50;22.70;;;12.10;99.90;;;;;;4986976;28;20239;-88
2023/03/18 07:15:45;;;;;;;38.43;23.03;;;12.10;99.90;;;;;;4984351;28;20200;-88
2023/03/18 07:18:20;;;;;;;36.93;22.37;;;12.20;99.90;;;;;;4979352;28;20211;-90
2023/03/18 07:20:48;;;;;;;36.13;21.17;;;12.20;99.90;;;;;;4955293;28;20215;-88
2023/03/18 07:23:15;;;;;;;38.63;22.77;;;12.20;99.90;;;;;;4982793;28;20286;-88
2023/03/18 07:25:43;;;;;;;35.47;22.30;;;12.30;99.90;;;;;;4983668;28;20737;-90
2023/03/18 07:28:11;;;;;;;39.03;21.80;;;12.30;99.90;;;;;;4976099;28;20212;-90
2023/03/18 07:30:38;;;;;;;36.97;21.47;;;12.40;99.90;;;;;;4979991;28;20203;-86
2023/03/18 07:33:05;;;;;;;39.13;22.33;;;12.40;99.90;;;;;;4972821;28;20231;-84
2023/03/18 07:35:32;;;;;;;37.00;22.03;;;12.60;99.90;;;;;;4971162;28;20298;-85
2023/03/18 07:38:00;;;;;;;34.23;21.77;;;12.70;99.90;;;;;;4977504;28;20272;-88
2023/03/18 07:40:30;;;;;;;37.40;23.50;;;12.60;99.90;;;;;;4985668;28;20224;-91
2023/03/18 07:43:09;;;;;;;37.93;22.23;;;12.60;99.90;;;;;;4977328;28;20200;-90
2023/03/18 07:45:37;;;;;;;39.37;23.63;;;12.60;99.90;;;;;;4978537;28;20613;-89
2023/03/18 07:48:10;;;;;;;36.07;22.53;;;12.60;99.90;;;;;;4982423;28;20270;-93
2023/03/18 07:50:39;;;;;;;35.03;22.53;;;12.80;99.90;;;;;;4976968;28;20258;-90
2023/03/18 07:53:07;;;;;;;35.87;21.80;;;13.00;99.90;;;;;;4983589;28;20208;-91
2023/03/18 07:55:35;;;;;;;38.40;22.47;;;13.20;99.90;;;;;;4966572;28;20661;-90
2023/03/18 07:58:03;;;;;;;37.67;21.70;;;13.30;99.90;;;;;;4977782;28;20862;-89
2023/03/18 08:00:36;;;;;;;33.30;21.53;;;13.30;99.90;;;;;;4971668;28;20200;-91
2023/03/18 08:03:08;;;;;;;31.20;19.87;;;13.70;99.90;;;;;;4982323;28;20617;-90
2023/03/18 08:05:38;;;;;;;28.90;18.80;;;14.40;99.90;;;;;;4983707;28;20216;-91
2023/03/18 08:08:09;;;;;;;28.38;18.05;;;15.00;99.90;;;;;;4975565;28;20207;-86
2023/03/18 08:10:43;;;;;;;27.55;17.70;;;15.70;99.90;;;;;;4975898;28;21074;-89
2023/03/18 08:13:11;;;;;;;25.42;17.23;;;16.20;99.90;;;;;;4962624;28;20231;-90
2023/03/18 08:15:43;;;;;;;23.33;16.90;;;16.70;99.90;;;;;;4960053;28;20215;-91
2023/03/18 08:18:10;;;;;;;22.00;16.38;;;17.00;99.90;;;;;;4974743;28;20237;-90
2023/03/18 08:20:40;;;;;;;25.35;16.60;;;17.40;99.90;;;;;;4989036;28;20231;-90
2023/03/18 08:23:12;;;;;;;24.30;16.50;;;17.70;99.90;;;;;;4984510;28;20289;-88
2023/03/18 08:25:41;;;;;;;24.02;17.13;;;17.70;99.90;;;;;;4980315;28;20681;-91
2023/03/18 08:28:09;;;;;;;21.92;16.67;;;17.80;99.90;;;;;;4977603;28;20206;-89
2023/03/18 08:30:38;;;;;;;23.95;16.33;;;17.60;99.90;;;;;;4977674;28;20219;-90
2023/03/18 08:33:06;;;;;;;26.08;18.83;;;17.40;99.90;;;;;;4979201;28;20274;-91
2023/03/18 08:35:34;;;;;;;24.98;17.52;;;17.10;99.90;;;;;;4981883;28;20212;-90
2023/03/18 08:38:05;;;;;;;27.60;20.05;;;17.00;99.90;;;;;;4991125;28;20231;-90
2023/03/18 08:40:34;;;;;;;29.95;20.52;;;16.70;99.90;;;;;;4999141;28;20212;-90
2023/03/18 08:43:03;;;;;;;30.05;20.70;;;16.50;99.90;;;;;;4983615;28;20219;-90
2023/03/18 08:45:31;;;;;;;27.25;19.55;;;16.40;99.90;;;;;;4981332;28;20215;-90
2023/03/18 08:47:59;;;;;;;23.33;16.83;;;16.30;99.90;;;;;;4988145;28;20292;-89
2023/03/18 08:50:34;;;;;;;22.10;16.85;;;16.10;99.90;;;;;;4986012;28;20274;-89
2023/03/18 08:53:06;;;;;;;19.83;15.20;;;16.00;99.90;;;;;;5001518;28;20271;-90
2023/03/18 08:55:39;;;;;;;21.65;15.10;;;15.80;99.90;;;;;;4995096;28;20215;-88
2023/03/18 08:58:10;;;;;;;22.48;16.55;;;15.70;99.90;;;;;;4995438;28;20239;-90
2023/03/18 09:00:41;;;;;;;18.40;14.70;;;15.80;99.90;;;;;;4983507;28;20717;-89
2023/03/18 09:03:09;;;;;;;20.27;14.57;;;16.00;99.90;;;;;;4968754;28;20216;-91
2023/03/18 09:05:39;;;;;;;18.75;14.60;;;16.10;99.90;;;;;;4980465;28;20208;-92
2023/03/18 09:08:09;;;;;;;18.10;12.75;;;16.20;99.90;;;;;;4983074;28;20228;-90
2023/03/18 09:10:40;;;;;;;18.05;14.60;;;16.60;99.90;;;;;;4983723;28;20213;-90
2023/03/18 09:13:07;;;;;;;20.50;14.52;;;17.10;99.90;;;;;;5000455;28;20244;-90
2023/03/18 09:15:35;;;;;;;20.90;14.50;;;17.20;99.90;;;;;;5003385;28;20235;-90
2023/03/18 09:18:08;;;;;;;21.20;14.02;;;17.40;99.90;;;;;;5008589;28;20224;-89
2023/03/18 09:20:40;;;;;;;19.83;14.15;;;17.10;99.90;;;;;;4996141;28;20262;-90
2023/03/18 09:23:17;;;;;;;22.73;14.25;;;17.00;99.90;;;;;;5001584;28;20210;-90
2023/03/18 09:25:47;;;;;;;17.58;13.52;;;16.90;99.90;;;;;;5007675;28;20616;-90
2023/03/18 09:28:18;;;;;;;19.55;14.90;;;17.00;99.90;;;;;;4994897;28;20228;-91
2023/03/18 09:30:46;;;;;;;14.05;10.30;;;17.10;99.90;;;;;;4992814;28;20222;-90
2023/03/18 09:33:21;;;;;;;13.80;8.60;;;17.30;99.90;;;;;;5000911;28;20227;-90
2023/03/18 09:35:49;;;;;;;12.27;8.73;;;17.20;99.90;;;;;;4993049;28;20208;-90
2023/03/18 09:38:21;;;;;;;11.15;7.63;;;17.20;99.90;;;;;;4993454;28;20212;-91
2023/03/18 09:41:09;;;;;;;12.00;9.00;;;17.20;99.90;;;;;;4987147;28;20211;-91
2023/03/18 09:43:51;;;;;;;14.07;9.63;;;17.40;99.90;;;;;;4995415;28;20201;-90
2023/03/18 09:46:41;;;;;;;11.23;8.80;;;17.70;99.90;;;;;;5004179;28;20224;-90
2023/03/18 09:49:42;;;;;;;;;;;;;;;;;;;;;
2023/03/18 09:52:31;;;;;;;11.05;8.40;;;18.40;99.90;;;;;;4975246;28;20310;-91
2023/03/18 09:55:14;;;;;;;15.00;9.80;;;18.80;99.90;;;;;;4973329;28;20200;-92
2023/03/18 09:57:44;;;;;;;9.85;7.40;;;18.80;99.90;;;;;;4989743;28;20204;-91
2023/03/18 10:00:36;;;;;;;7.55;5.85;;;18.80;99.90;;;;;;4991687;28;20192;-90
2023/03/18 10:03:34;;;;;;;10.68;7.15;;;19.00;99.90;;;;;;5009574;28;20239;-91
2023/03/18 10:06:17;;;;;;;8.82;6.50;;;19.20;99.90;;;;;;4967598;28;20216;-91
2023/03/18 10:09:14;;;;;;;9.85;6.50;;;19.40;99.90;;;;;;4992888;28;20214;-90
2023/03/18 10:11:46;;;;;;;9.70;6.68;;;19.70;99.90;;;;;;4985793;28;20268;-89
2023/03/18 10:14:27;;;;;;;7.22;5.40;;;19.80;99.90;;;;;;4985617;28;20712;-90
2023/03/18 10:17:14;;;;;;;6.93;4.93;;;20.10;99.90;;;;;;4983911;28;20258;-91
2023/03/18 10:19:51;;;;;;;7.97;5.18;;;20.20;99.90;;;;;;4980029;28;20212;-91
2023/03/18 10:23:01;;;;;;;9.20;5.50;;;20.20;99.90;;;;;;4977867;28;20239;-89
2023/03/18 10:25:41;;;;;;;7.13;5.15;;;20.30;99.90;;;;;;4978356;28;20769;-90
2023/03/18 10:28:36;;;;;;;8.82;4.72;;;20.20;99.90;;;;;;4986498;28;20235;-91
2023/03/18 10:31:36;;;;;;;8.55;4.45;;;20.10;99.90;;;;;;4976869;28;20203;-91
2023/03/18 10:34:10;;;;;;;6.43;4.10;;;19.90;99.90;;;;;;4981058;28;20266;-89
2023/03/18 10:37:18;;;;;;;5.82;4.10;;;19.60;99.90;;;;;;4967654;28;20220;-91
2023/03/18 10:39:48;;;;;;;6.82;3.83;;;19.40;99.90;;;;;;4969113;28;20279;-89
2023/03/18 10:42:26;;;;;;;6.63;4.50;;;19.40;99.90;;;;;;4990438;28;20212;-90
2023/03/18 10:45:27;;;;;;;4.70;3.17;;;19.30;99.90;;;;;;4997342;28;20223;-90
2023/03/18 10:48:34;;;;;;;8.85;4.50;;;19.20;99.90;;;;;;4985650;28;20267;-91
2023/03/18 10:51:13;;;;;;;6.63;4.40;;;19.20;99.90;;;;;;4968847;28;20240;-90
2023/03/18 10:54:08;;;;;;;8.05;4.25;;;19.30;99.90;;;;;;4992538;28;20221;-92
2023/03/18 10:56:36;;;;;;;4.25;3.50;;;19.50;99.90;;;;;;4992139;28;20211;-90
2023/03/18 10:59:17;;;;;;;7.38;3.45;;;19.50;99.90;;;;;;5004247;28;20270;-91
2023/03/18 11:01:48;;;;;;;5.28;3.67;;;19.50;99.90;;;;;;4985189;28;20227;-91
2023/03/18 11:04:24;;;;;;;5.55;3.70;;;19.60;99.90;;;;;;4981065;28;20207;-91
2023/03/18 11:07:12;;;;;;;4.70;3.38;;;19.50;99.90;;;;;;4970117;28;20319;-91
2023/03/18 11:09:51;;;;;;;4.85;3.30;;;19.50;99.90;;;;;;4998942;28;20211;-91
2023/03/18 11:12:31;;;;;;;6.65;3.65;;;19.30;99.90;;;;;;4993779;28;20218;-90
2023/03/18 11:15:19;;;;;;;4.38;3.08;;;19.40;99.90;;;;;;4982451;28;20299;-91
2023/03/18 11:18:01;;;;;;;3.22;2.72;;;19.30;99.90;;;;;;4979619;28;20238;-90
2023/03/18 11:20:46;;;;;;;6.25;3.20;;;19.30;99.90;;;;;;4981437;28;20220;-91
2023/03/18 11:23:55;;;;;;;4.32;3.15;;;19.30;99.90;;;;;;4997201;28;20234;-91
2023/03/18 11:26:28;;;;;;;7.40;4.38;;;19.30;99.90;;;;;;4980162;28;20211;-91
2023/03/18 11:29:12;;;;;;;7.28;4.70;;;19.30;99.90;;;;;;4976268;28;20208;-90
2023/03/18 11:32:01;;;;;;;6.82;4.40;;;19.20;99.90;;;;;;4988240;28;20211;-93
2023/03/18 11:34:34;;;;;;;6.45;4.30;;;19.20;99.90;;;;;;4960177;28;20223;-90
2023/03/18 11:37:04;;;;;;;4.30;3.90;;;19.10;99.90;;;;;;4978762;28;20660;-90
2023/03/18 11:39:36;;;;;;;4.13;3.05;;;19.30;99.90;;;;;;4979657;28;20295;-90
2023/03/18 11:42:20;;;;;;;4.68;3.20;;;19.30;99.90;;;;;;4979357;28;20208;-91
2023/03/18 11:44:55;;;;;;;5.18;3.67;;;19.40;99.90;;;;;;4982070;28;20223;-92
2023/03/18 11:47:29;;;;;;;3.97;3.30;;;19.50;99.90;;;;;;4990774;28;20266;-91
2023/03/18 11:50:01;;;;;;;6.55;4.30;;;19.50;99.90;;;;;;4982964;28;20326;-92
2023/03/18 11:52:58;;;;;;;5.75;4.20;;;19.40;99.90;;;;;;4990000;28;20211;-91
2023/03/18 11:55:47;;;;;;;6.18;3.05;;;19.40;99.90;;;;;;4976232;28;20212;-89
2023/03/18 11:58:53;;;;;;;5.15;3.50;;;19.60;99.90;;;;;;4971414;28;20211;-91
2023/03/18 12:01:28;;;;;;;5.40;3.47;;;19.70;99.90;;;;;;4988750;28;20578;-91
2023/03/18 12:04:22;;;;;;;4.30;2.95;;;19.80;99.90;;;;;;4977182;28;20507;-87
2023/03/18 12:07:25;;;;;;;5.43;2.92;;;19.90;99.90;;;;;;4983256;28;20670;-94
2023/03/18 12:10:14;;;;;;;5.82;3.40;;;20.10;99.90;;;;;;4977526;28;20207;-84
2023/03/18 12:13:05;;;;;;;6.40;3.92;;;20.10;99.90;;;;;;4975882;28;20211;-85
2023/03/18 12:15:37;;;;;;;5.55;3.28;;;20.10;99.90;;;;;;4994759;28;20271;-89
2023/03/18 12:18:28;;;;;;;4.78;3.00;;;20.10;99.90;;;;;;4987123;28;20230;-86
2023/03/18 12:21:08;;;;;;;6.55;3.10;;;20.30;99.90;;;;;;4967741;28;20204;-85
2023/03/18 12:24:05;;;;;;;4.53;2.47;;;20.30;99.90;;;;;;4995609;28;20211;-87
2023/03/18 12:27:05;;;;;;;5.50;2.63;;;20.30;99.90;;;;;;4980721;28;20262;-91
2023/03/18 12:29:55;;;;;;;4.93;2.55;;;20.10;99.90;;;;;;4984472;28;20234;-86
2023/03/18 12:32:31;;;;;;;4.35;2.63;;;20.00;99.90;;;;;;4973268;28;20220;-89
2023/03/18 12:35:14;;;;;;;5.72;2.47;;;19.90;99.90;;;;;;4996215;28;20208;-90
2023/03/18 12:38:16;;;;;;;4.00;2.65;;;19.70;99.90;;;;;;4976414;28;20203;-90
2023/03/18 12:41:22;;;;;;;;;;;;;;;;;;;;;
2023/03/18 12:44:50;;;;;;;4.00;2.45;;;19.60;99.90;;;;;;4990721;28;20211;-91
2023/03/18 12:48:01;;;;;;;4.22;2.47;;;19.70;99.90;;;;;;4988287;28;20230;-91
2023/03/18 12:50:40;;;;;;;4.38;1.98;;;19.60;99.90;;;;;;4972878;28;20204;-92
2023/03/18 12:53:17;;;;;;;3.65;2.03;;;19.50;99.90;;;;;;4969678;28;20214;-84
2023/03/18 12:55:53;;;;;;;4.82;2.15;;;19.40;99.90;;;;;;4996589;28;20206;-84
2023/03/18 12:58:43;;;;;;;5.57;2.28;;;19.30;99.90;;;;;;4998502;28;20294;-93
2023/03/18 13:01:28;;;;;;;7.78;1.90;;;19.20;99.90;;;;;;4991450;28;20226;-92
2023/03/18 13:04:04;;;;;;;5.13;2.55;;;19.10;99.90;;;;;;5007297;28;20227;-93
2023/03/18 13:06:50;;;;;;;2.80;1.80;;;19.10;99.90;;;;;;4989218;28;20203;-92
2023/03/18 13:09:39;;;;;;;2.90;1.60;;;19.10;99.90;;;;;;4989525;28;20234;-93
2023/03/18 13:12:27;;;;;;;4.53;2.28;;;19.10;99.90;;;;;;4976605;28;20200;-92
2023/03/18 13:15:33;;;;;;;5.05;1.90;;;19.10;99.90;;;;;;4971073;28;20266;-92
2023/03/18 13:18:43;;;;;;;5.15;2.15;;;19.10;99.90;;;;;;4988256;28;20223;-92